createdAt,value
2022-12-25T00:01:56.601Z,100961.84
2022-12-25T00:04:24.501Z,100969.50
2022-12-25T00:06:52.253Z,100968.81
2022-12-25T00:09:20.103Z,100971.91
2022-12-25T00:11:48.096Z,100970.28
2022-12-25T00:14:15.768Z,100977.28
2022-12-25T00:16:43.389Z,100983.63
2022-12-25T00:19:11.442Z,100997.03
2022-12-25T00:21:39.047Z,100988.56
2022-12-25T00:24:07.127Z,101001.12
2022-12-25T00:26:35.086Z,101002.00
2022-12-25T00:29:02.613Z,101008.94
2022-12-25T00:31:30.332Z,101007.75
2022-12-25T00:33:58.216Z,101001.25
2022-12-25T00:36:25.856Z,101012.72
2022-12-25T00:38:53.502Z,101008.47
2022-12-25T00:41:42.115Z,100998.19
2022-12-25T00:44:12.522Z,101001.62
2022-12-25T00:46:41.811Z,100996.06
2022-12-25T00:49:10.274Z,101006.44
2022-12-25T00:51:38.459Z,100996.56
2022-12-25T00:54:06.595Z,100996.97
2022-12-25T00:56:34.956Z,101010.81
2022-12-25T00:59:02.582Z,101010.37
2022-12-25T01:01:30.719Z,101013.44
2022-12-25T01:03:58.977Z,101014.78
2022-12-25T01:06:26.794Z,101019.03
2022-12-25T01:09:18.061Z,101022.34
2022-12-25T01:11:46.102Z,101023.41
2022-12-25T01:14:14.478Z,101025.94
2022-12-25T01:16:42.125Z,101028.25
2022-12-25T01:19:11.727Z,101027.37
2022-12-25T01:21:39.637Z,101026.03
2022-12-25T01:24:07.395Z,101023.09
2022-12-25T01:26:34.951Z,101031.56
2022-12-25T01:29:03.123Z,101026.56
2022-12-25T01:31:30.764Z,101035.22
2022-12-25T01:33:58.451Z,101034.31
2022-12-25T01:36:26.836Z,101034.53
2022-12-25T01:38:55.094Z,101032.34
2022-12-25T01:41:24.483Z,101029.13
2022-12-25T01:44:03.334Z,101027.25
2022-12-25T01:46:31.968Z,101026.59
2022-12-25T01:49:22.956Z,101031.09
2022-12-25T01:51:58.450Z,101027.06
2022-12-25T01:54:36.645Z,101034.53
2022-12-25T01:57:08.831Z,101029.84
2022-12-25T01:59:37.303Z,101023.22
2022-12-25T02:02:05.587Z,101026.38
2022-12-25T02:04:40.397Z,101026.31
2022-12-25T02:07:16.646Z,101020.28
2022-12-25T02:09:46.869Z,101036.66
2022-12-25T02:12:30.959Z,101046.41
2022-12-25T02:15:05.789Z,101042.25
2022-12-25T02:17:39.851Z,101045.81
2022-12-25T02:20:37.823Z,101052.38
2022-12-25T02:23:49.637Z,101053.56
2022-12-25T02:26:38.556Z,101050.81
2022-12-25T02:29:30.721Z,101053.97
2022-12-25T02:32:05.809Z,101054.37
2022-12-25T02:34:45.282Z,101053.94
2022-12-25T02:37:19.972Z,101069.03
2022-12-25T02:39:59.412Z,101069.66
2022-12-25T02:43:17.354Z,101075.59
2022-12-25T02:46:15.752Z,101073.59
2022-12-25T02:49:07.278Z,101070.84
2022-12-25T02:51:58.890Z,101077.97
2022-12-25T02:54:54.100Z,101084.91
2022-12-25T02:57:44.973Z,101086.31
2022-12-25T03:00:33.027Z,101079.34
2022-12-25T03:03:22.008Z,101069.25
2022-12-25T03:06:09.306Z,101074.59
2022-12-25T03:08:44.110Z,101075.00
2022-12-25T03:11:31.516Z,101079.56
2022-12-25T03:14:23.327Z,101086.50
2022-12-25T03:16:55.338Z,101111.06
2022-12-25T03:20:04.444Z,101107.09
2022-12-25T03:22:51.637Z,101113.91
2022-12-25T03:25:38.677Z,101122.03
2022-12-25T03:28:06.963Z,101129.91
2022-12-25T03:31:13.989Z,101130.06
2022-12-25T03:34:12.454Z,101133.31
2022-12-25T03:37:32.970Z,101114.69
2022-12-25T03:40:45.360Z,101131.50
2022-12-25T03:57:28.373Z,101129.91
2022-12-25T04:00:15.275Z,101132.72
2022-12-25T04:03:02.018Z,101140.78
2022-12-25T04:05:48.593Z,101140.97
2022-12-25T04:08:35.401Z,101136.00
2022-12-25T04:11:22.078Z,101126.19
2022-12-25T04:14:08.481Z,101125.41
2022-12-25T04:16:54.678Z,101119.38
2022-12-25T04:19:41.147Z,101122.22
2022-12-25T04:22:27.270Z,101122.00
2022-12-25T04:25:13.865Z,101121.03
2022-12-25T04:27:59.974Z,101123.62
2022-12-25T04:30:46.508Z,101130.84
2022-12-25T04:33:33.004Z,101138.94
2022-12-25T04:36:09.791Z,101136.00
2022-12-25T04:38:38.168Z,101139.13
2022-12-25T04:41:08.446Z,101130.66
2022-12-25T04:43:36.017Z,101132.00
2022-12-25T04:46:05.128Z,101144.59
2022-12-25T04:48:35.684Z,101133.06
2022-12-25T04:51:18.028Z,101127.56
2022-12-25T04:53:47.263Z,101141.97
2022-12-25T04:56:15.317Z,101139.00
2022-12-25T04:58:43.330Z,101142.72
2022-12-25T05:01:12.333Z,101138.50
2022-12-25T05:03:40.181Z,101140.25
2022-12-25T05:06:08.127Z,101146.13
2022-12-25T05:08:37.035Z,101142.22
2022-12-25T05:11:09.848Z,101161.50
2022-12-25T05:13:38.847Z,101162.13
2022-12-25T05:16:16.519Z,101167.97
2022-12-25T05:18:44.607Z,101168.56
2022-12-25T05:21:12.744Z,101170.81
2022-12-25T05:23:48.532Z,101160.34
2022-12-25T05:26:19.617Z,101160.91
2022-12-25T05:28:47.694Z,101156.97
2022-12-25T05:31:15.402Z,101166.06
2022-12-25T05:33:43.427Z,101174.03
2022-12-25T05:36:12.942Z,101183.94
2022-12-25T05:38:40.525Z,101180.94
2022-12-25T05:41:08.458Z,101183.34
2022-12-25T05:43:35.992Z,101188.59
2022-12-25T05:46:08.596Z,101188.19
2022-12-25T05:48:37.968Z,101190.91
2022-12-25T05:51:07.730Z,101184.44
2022-12-25T05:53:35.525Z,101199.16
2022-12-25T05:56:05.821Z,101201.88
2022-12-25T05:58:35.301Z,101195.84
2022-12-25T06:01:03.277Z,101196.16
2022-12-25T06:03:31.579Z,101207.22
2022-12-25T06:05:59.220Z,101201.41
2022-12-25T06:08:26.819Z,101210.06
2022-12-25T06:10:54.701Z,101210.13
2022-12-25T06:13:22.267Z,101214.34
2022-12-25T06:15:49.899Z,101232.31
2022-12-25T06:18:17.771Z,101232.75
2022-12-25T06:20:45.443Z,101224.03
2022-12-25T06:23:13.151Z,101228.81
2022-12-25T06:25:41.098Z,101223.59
2022-12-25T06:28:08.988Z,101235.03
2022-12-25T06:30:36.552Z,101239.03
2022-12-25T06:33:04.449Z,101239.09
2022-12-25T06:35:32.002Z,101248.50
2022-12-25T06:38:00.481Z,101243.00
2022-12-25T06:40:28.409Z,101243.22
2022-12-25T06:42:55.922Z,101232.81
2022-12-25T06:45:23.564Z,101244.44
2022-12-25T06:47:51.713Z,101260.16
2022-12-25T06:50:19.334Z,101263.31
2022-12-25T06:52:46.908Z,101259.72
2022-12-25T06:55:14.782Z,101263.91
2022-12-25T06:57:42.385Z,101272.44
2022-12-25T07:00:10.418Z,101276.59
2022-12-25T07:02:38.837Z,101283.16
2022-12-25T07:05:06.781Z,101285.75
2022-12-25T07:07:34.499Z,101303.00
2022-12-25T07:10:02.373Z,101294.25
2022-12-25T07:12:30.068Z,101288.75
2022-12-25T07:15:02.400Z,101293.56
2022-12-25T07:17:30.341Z,101295.59
2022-12-25T07:19:57.908Z,101299.16
2022-12-25T07:22:25.630Z,101298.34
2022-12-25T07:24:53.450Z,101301.22
2022-12-25T07:27:21.050Z,101305.19
2022-12-25T07:29:49.099Z,101315.88
2022-12-25T07:32:17.084Z,101309.16
2022-12-25T07:34:44.971Z,101314.84
2022-12-25T07:37:13.135Z,101319.03
2022-12-25T07:39:41.075Z,101323.94
2022-12-25T07:42:08.846Z,101329.16
2022-12-25T07:44:36.385Z,101326.53
2022-12-25T07:47:04.321Z,101336.47
2022-12-25T07:49:32.031Z,101337.34
2022-12-25T07:51:59.583Z,101329.03
2022-12-25T07:54:27.398Z,101342.53
2022-12-25T07:56:54.956Z,101346.88
2022-12-25T07:59:22.526Z,101350.72
2022-12-25T08:01:51.059Z,101341.69
2022-12-25T08:04:19.257Z,101342.28
2022-12-25T08:06:46.891Z,101338.03
2022-12-25T08:09:14.494Z,101342.53
2022-12-25T08:11:46.860Z,101362.56
2022-12-25T08:14:14.854Z,101359.97
2022-12-25T08:16:42.777Z,101352.63
2022-12-25T08:19:11.264Z,101347.91
2022-12-25T08:21:38.989Z,101356.47
2022-12-25T08:24:07.074Z,101358.16
2022-12-25T08:26:34.695Z,101374.06
2022-12-25T08:29:02.429Z,101366.13
2022-12-25T08:31:31.368Z,101378.09
2022-12-25T08:33:59.078Z,101381.69
2022-12-25T08:36:27.188Z,101380.88
2022-12-25T08:39:02.174Z,101384.31
2022-12-25T08:41:31.651Z,101386.78
2022-12-25T08:43:59.507Z,101381.75
2022-12-25T08:46:27.063Z,101371.09
2022-12-25T08:48:56.733Z,101381.50
2022-12-25T08:51:26.206Z,101381.00
2022-12-25T08:53:59.053Z,101388.88
2022-12-25T08:56:27.096Z,101390.78
2022-12-25T08:58:54.769Z,101390.84
2022-12-25T09:01:22.409Z,101400.34
2022-12-25T09:03:50.559Z,101402.72
2022-12-25T09:06:18.273Z,101392.97
2022-12-25T09:08:49.050Z,101400.88
2022-12-25T09:11:19.950Z,101400.13
2022-12-25T09:13:48.974Z,101406.87
2022-12-25T09:16:21.023Z,101401.88
2022-12-25T09:18:48.936Z,101402.13
2022-12-25T09:21:17.485Z,101408.50
2022-12-25T09:23:45.369Z,101402.97
2022-12-25T09:26:15.251Z,101403.63
2022-12-25T09:28:50.305Z,101404.88
2022-12-25T09:31:19.134Z,101404.31
2022-12-25T09:33:47.468Z,101399.50
2022-12-25T09:36:15.227Z,101399.97
2022-12-25T09:38:43.047Z,101402.69
2022-12-25T09:41:32.114Z,101400.84
2022-12-25T09:44:12.562Z,101393.97
2022-12-25T09:47:08.450Z,101397.16
2022-12-25T09:50:00.385Z,101396.06
2022-12-25T09:52:46.303Z,101399.81
2022-12-25T09:55:20.459Z,101398.34
2022-12-25T09:57:58.721Z,101401.78
2022-12-25T10:00:36.059Z,101411.31
2022-12-25T10:03:10.599Z,101419.19
2022-12-25T10:05:44.075Z,101419.47
2022-12-25T10:08:41.004Z,101416.91
2022-12-25T10:11:26.518Z,101416.22
2022-12-25T10:14:07.330Z,101408.97
2022-12-25T10:16:57.119Z,101419.09
2022-12-25T10:19:34.066Z,101422.63
2022-12-25T10:22:09.434Z,101421.88
2022-12-25T10:24:43.829Z,101423.22
2022-12-25T10:27:32.145Z,101428.03
2022-12-25T10:30:01.845Z,101422.81
2022-12-25T10:32:30.042Z,101430.25
2022-12-25T10:34:57.613Z,101432.31
2022-12-25T10:37:25.475Z,101435.09
2022-12-25T10:39:53.175Z,101432.97
2022-12-25T10:42:34.714Z,101424.81
2022-12-25T10:45:09.134Z,101433.19
2022-12-25T10:47:42.659Z,101431.56
2022-12-25T10:50:24.823Z,101436.34
2022-12-25T10:53:00.910Z,101432.97
2022-12-25T10:55:29.862Z,101436.16
2022-12-25T10:57:59.165Z,101430.56
2022-12-25T11:00:32.215Z,101429.94
2022-12-25T11:03:00.807Z,101428.97
2022-12-25T11:05:31.319Z,101431.94
2022-12-25T11:08:01.262Z,101428.28
2022-12-25T11:10:34.208Z,101426.44
2022-12-25T11:13:02.917Z,101431.41
2022-12-25T11:15:44.584Z,101429.41
2022-12-25T11:18:35.597Z,101427.22
2022-12-25T11:21:16.515Z,101436.16
2022-12-25T11:23:50.218Z,101445.88
2022-12-25T11:26:18.705Z,101447.47
2022-12-25T11:28:48.822Z,101456.63
2022-12-25T11:31:19.728Z,101458.16
2022-12-25T11:34:05.546Z,101447.34
2022-12-25T11:36:43.746Z,101449.06
2022-12-25T11:39:21.836Z,101455.69
2022-12-25T11:41:53.891Z,101453.53
2022-12-25T11:44:36.713Z,101456.94
2022-12-25T11:47:15.085Z,101450.78
2022-12-25T11:49:51.512Z,101442.75
2022-12-25T11:52:22.718Z,101439.59
2022-12-25T11:55:02.923Z,101438.66
2022-12-25T11:57:33.022Z,101443.00
2022-12-25T12:00:09.506Z,101437.81
2022-12-25T12:02:48.881Z,101451.00
2022-12-25T12:05:21.606Z,101446.19
2022-12-25T12:07:55.796Z,101445.41
2022-12-25T12:10:32.858Z,101453.56
2022-12-25T12:13:23.691Z,101459.69
2022-12-25T12:15:51.698Z,101464.37
2022-12-25T12:18:23.433Z,101460.75
2022-12-25T12:21:03.319Z,101457.88
2022-12-25T12:23:54.408Z,101445.75
2022-12-25T12:26:24.869Z,101448.50
2022-12-25T12:28:57.298Z,101444.09
2022-12-25T12:31:36.419Z,101459.22
2022-12-25T12:34:05.127Z,101451.66
2022-12-25T12:36:36.960Z,101457.44
2022-12-25T12:39:06.073Z,101461.41
2022-12-25T12:41:52.860Z,101455.56
2022-12-25T12:44:25.441Z,101456.66
2022-12-25T12:46:55.949Z,101468.25
2022-12-25T12:49:32.939Z,101466.44
2022-12-25T12:52:24.836Z,101457.19
2022-12-25T12:54:59.899Z,101457.06
2022-12-25T12:57:34.483Z,101457.03
2022-12-25T13:00:09.858Z,101445.59
2022-12-25T13:02:50.067Z,101458.34
2022-12-25T13:05:42.169Z,101453.34
2022-12-25T13:08:33.400Z,101455.25
2022-12-25T13:11:20.378Z,101455.47
2022-12-25T13:13:50.876Z,101455.59
2022-12-25T13:16:24.558Z,101452.03
2022-12-25T13:18:53.985Z,101458.41
2022-12-25T13:21:28.408Z,101463.41
2022-12-25T13:23:58.589Z,101459.16
2022-12-25T13:26:27.542Z,101458.13
2022-12-25T13:28:56.262Z,101456.87
2022-12-25T13:31:29.283Z,101462.16
2022-12-25T13:34:05.696Z,101467.59
2022-12-25T13:36:38.450Z,101460.87
2022-12-25T13:39:16.765Z,101462.56
2022-12-25T13:42:06.252Z,101460.37
2022-12-25T13:44:40.127Z,101463.69
2022-12-25T13:47:19.079Z,101472.31
2022-12-25T13:49:48.435Z,101473.59
2022-12-25T13:52:21.634Z,101471.37
2022-12-25T13:55:03.928Z,101474.59
2022-12-25T13:57:36.869Z,101466.72
2022-12-25T14:00:07.183Z,101463.81
2022-12-25T14:02:38.290Z,101463.13
2022-12-25T14:05:22.840Z,101468.69
2022-12-25T14:07:55.605Z,101465.69
2022-12-25T14:10:26.134Z,101458.47
2022-12-25T14:12:58.359Z,101460.06
2022-12-25T14:15:30.430Z,101457.94
2022-12-25T14:17:59.443Z,101453.06
2022-12-25T14:20:30.155Z,101450.25
2022-12-25T14:23:00.777Z,101459.06
2022-12-25T14:25:43.093Z,101459.38
2022-12-25T14:28:20.646Z,101474.22
2022-12-25T14:30:48.560Z,101481.28
2022-12-25T14:33:21.165Z,101482.88
2022-12-25T14:35:50.123Z,101481.78
2022-12-25T14:38:28.191Z,101486.00
2022-12-25T14:41:05.110Z,101496.22
2022-12-25T14:43:34.658Z,101503.72
2022-12-25T14:46:06.520Z,101498.25
2022-12-25T14:48:34.970Z,101506.34
2022-12-25T14:51:07.503Z,101507.09
2022-12-25T14:53:38.082Z,101505.47
2022-12-25T14:56:08.453Z,101493.50
2022-12-25T14:58:42.895Z,101506.91
2022-12-25T15:01:33.685Z,101511.44
2022-12-25T15:04:10.483Z,101516.78
2022-12-25T15:06:56.628Z,101524.00
2022-12-25T15:09:24.545Z,101521.59
2022-12-25T15:11:55.544Z,101523.81
2022-12-25T15:14:24.455Z,101517.34
2022-12-25T15:16:55.659Z,101511.06
2022-12-25T15:19:34.802Z,101508.56
2022-12-25T15:22:05.616Z,101506.91
2022-12-25T15:24:33.329Z,101508.34
2022-12-25T15:27:01.619Z,101519.62
2022-12-25T15:30:07.953Z,101519.03
2022-12-25T15:32:22.571Z,101507.56
2022-12-25T15:34:51.325Z,101517.87
2022-12-25T15:37:19.006Z,101511.66
2022-12-25T15:39:46.659Z,101518.31
2022-12-25T15:42:18.017Z,101514.38
2022-12-25T15:44:46.499Z,101513.81
2022-12-25T15:47:16.800Z,101520.81
2022-12-25T15:49:44.393Z,101523.84
2022-12-25T15:52:14.227Z,101527.00
2022-12-25T15:54:42.576Z,101523.84
2022-12-25T15:57:18.060Z,101526.09
2022-12-25T15:59:46.231Z,101532.72
2022-12-25T16:02:19.492Z,101532.53
2022-12-25T16:04:47.697Z,101532.44
2022-12-25T16:07:20.612Z,101525.66
2022-12-25T16:09:48.660Z,101520.94
2022-12-25T16:12:16.393Z,101515.00
2022-12-25T16:14:43.965Z,101513.12
2022-12-25T16:17:14.904Z,101498.28
2022-12-25T16:19:44.706Z,101483.47
2022-12-25T16:22:14.398Z,101483.28
2022-12-25T16:24:42.262Z,101481.94
2022-12-25T16:27:09.821Z,101480.31
2022-12-25T16:29:37.761Z,101485.69
2022-12-25T16:32:05.299Z,101502.03
2022-12-25T16:34:32.817Z,101506.78
2022-12-25T16:37:00.659Z,101506.94
2022-12-25T16:39:28.914Z,101489.41
2022-12-25T16:41:56.821Z,101495.97
2022-12-25T16:44:24.739Z,101498.03
2022-12-25T16:46:52.237Z,101508.78
2022-12-25T16:49:19.884Z,101500.25
2022-12-25T16:51:47.705Z,101486.88
2022-12-25T16:54:15.323Z,101480.50
2022-12-25T16:56:42.903Z,101486.88
2022-12-25T16:59:10.956Z,101491.28
2022-12-25T17:01:43.189Z,101497.63
2022-12-25T17:04:14.212Z,101495.66
2022-12-25T17:06:41.896Z,101496.28
2022-12-25T17:09:10.721Z,101492.88
2022-12-25T17:11:38.704Z,101488.09
2022-12-25T17:14:06.763Z,101500.06
2022-12-25T17:16:36.564Z,101494.66
2022-12-25T17:19:09.660Z,101499.66
2022-12-25T17:21:38.489Z,101496.44
2022-12-25T17:24:07.226Z,101497.63
2022-12-25T17:26:34.853Z,101488.25
2022-12-25T17:29:02.499Z,101499.84
2022-12-25T17:31:30.636Z,101500.63
2022-12-25T17:34:00.744Z,101502.03
2022-12-25T17:36:28.788Z,101511.75
2022-12-25T17:38:59.701Z,101516.38
2022-12-25T17:41:27.589Z,101523.50
2022-12-25T17:43:55.106Z,101516.75
2022-12-25T17:46:28.368Z,101520.53
2022-12-25T17:48:57.780Z,101526.69
2022-12-25T17:51:27.842Z,101520.75
2022-12-25T17:53:58.911Z,101526.28
2022-12-25T17:56:26.683Z,101526.69
2022-12-25T17:58:56.879Z,101527.63
2022-12-25T18:01:26.182Z,101530.28
2022-12-25T18:03:55.102Z,101531.09
2022-12-25T18:06:25.263Z,101529.09
2022-12-25T18:08:54.445Z,101526.50
2022-12-25T18:11:33.096Z,101524.09
2022-12-25T18:14:04.320Z,101526.59
2022-12-25T18:16:33.729Z,101516.47
2022-12-25T18:19:01.472Z,101523.88
2022-12-25T18:21:29.500Z,101522.09
2022-12-25T18:23:57.852Z,101514.38
2022-12-25T18:26:26.078Z,101526.84
2022-12-25T18:28:53.964Z,101520.28
2022-12-25T18:31:24.282Z,101501.03
2022-12-25T18:33:52.657Z,101507.19
2022-12-25T18:36:23.372Z,101509.31
2022-12-25T18:38:53.679Z,101506.72
2022-12-25T18:41:22.558Z,101501.63
2022-12-25T18:43:53.122Z,101496.06
2022-12-25T18:46:25.576Z,101498.63
2022-12-25T18:48:56.588Z,101494.91
2022-12-25T18:51:26.653Z,101496.78
2022-12-25T18:53:57.377Z,101506.75
2022-12-25T18:56:25.230Z,101501.16
2022-12-25T18:58:52.760Z,101503.16
2022-12-25T19:01:23.704Z,101501.34
2022-12-25T19:03:53.858Z,101503.38
2022-12-25T19:06:26.934Z,101509.88
2022-12-25T19:08:56.354Z,101498.37
2022-12-25T19:11:23.969Z,101488.81
2022-12-25T19:13:51.636Z,101499.53
2022-12-25T19:16:19.571Z,101484.78
2022-12-25T19:18:47.205Z,101491.63
2022-12-25T19:21:16.014Z,101488.03
2022-12-25T19:23:44.152Z,101491.34
2022-12-25T19:26:12.207Z,101477.72
2022-12-25T19:28:39.997Z,101482.13
2022-12-25T19:31:09.142Z,101477.63
2022-12-25T19:33:41.795Z,101484.78
2022-12-25T19:36:13.104Z,101483.41
2022-12-25T19:38:41.279Z,101492.41
2022-12-25T19:41:12.353Z,101494.37
2022-12-25T19:43:41.762Z,101499.72
2022-12-25T19:46:22.404Z,101493.31
2022-12-25T19:48:50.325Z,101492.13
2022-12-25T19:51:21.818Z,101503.81
2022-12-25T19:53:50.021Z,101501.19
2022-12-25T19:56:18.171Z,101503.19
2022-12-25T19:58:47.192Z,101507.28
2022-12-25T20:01:18.923Z,101503.56
2022-12-25T20:03:48.490Z,101509.53
2022-12-25T20:06:26.131Z,101507.87
2022-12-25T20:08:57.007Z,101499.16
2022-12-25T20:11:28.287Z,101503.97
2022-12-25T20:13:57.103Z,101501.56
2022-12-25T20:16:25.663Z,101501.78
2022-12-25T20:18:53.578Z,101483.31
2022-12-25T20:21:23.144Z,101478.81
2022-12-25T20:23:52.476Z,101475.09
2022-12-25T20:26:24.675Z,101474.78
2022-12-25T20:28:52.855Z,101465.00
2022-12-25T20:31:30.681Z,101475.06
2022-12-25T20:34:01.449Z,101474.06
2022-12-25T20:36:36.126Z,101490.84
2022-12-25T20:39:08.642Z,101493.31
2022-12-25T20:41:36.804Z,101490.72
2022-12-25T20:44:06.461Z,101494.16
2022-12-25T20:46:34.771Z,101501.53
2022-12-25T20:49:03.011Z,101491.75
2022-12-25T20:51:30.891Z,101497.75
2022-12-25T20:53:58.829Z,101495.75
2022-12-25T20:56:29.000Z,101493.06
2022-12-25T20:58:59.049Z,101501.31
2022-12-25T21:01:29.562Z,101491.03
2022-12-25T21:03:58.489Z,101493.47
2022-12-25T21:06:26.251Z,101513.28
2022-12-25T21:08:54.227Z,101515.84
2022-12-25T21:11:22.058Z,101519.03
2022-12-25T21:13:50.246Z,101520.69
2022-12-25T21:16:22.358Z,101513.38
2022-12-25T21:18:53.136Z,101521.03
2022-12-25T21:21:21.821Z,101512.53
2022-12-25T21:23:49.407Z,101510.53
2022-12-25T21:26:25.647Z,101500.63
2022-12-25T21:28:57.269Z,101502.78
2022-12-25T21:31:25.216Z,101499.84
2022-12-25T21:33:55.104Z,101511.37
2022-12-25T21:36:27.397Z,101500.44
2022-12-25T21:39:05.482Z,101487.97
2022-12-25T21:41:34.803Z,101509.75
2022-12-25T21:44:02.647Z,101510.63
2022-12-25T21:46:30.356Z,101516.16
2022-12-25T21:48:59.133Z,101523.06
2022-12-25T21:51:48.376Z,101519.38
2022-12-25T21:54:17.508Z,101520.59
2022-12-25T21:56:47.237Z,101522.88
2022-12-25T21:59:17.982Z,101518.50
2022-12-25T22:01:46.984Z,101518.47
2022-12-25T22:04:16.382Z,101524.16
2022-12-25T22:07:04.302Z,101515.59
2022-12-25T22:09:32.315Z,101513.81
2022-12-25T22:12:18.747Z,101497.94
2022-12-25T22:14:55.824Z,101499.09
2022-12-25T22:17:46.229Z,101499.84
2022-12-25T22:20:22.373Z,101498.75
2022-12-25T22:22:50.117Z,101492.00
2022-12-25T22:25:19.059Z,101500.88
2022-12-25T22:27:47.836Z,101497.47
2022-12-25T22:30:21.232Z,101501.37
2022-12-25T22:32:49.794Z,101498.56
2022-12-25T22:35:18.103Z,101485.47
2022-12-25T22:37:46.501Z,101482.41
2022-12-25T22:40:16.694Z,101472.50
2022-12-25T22:42:44.456Z,101452.53
2022-12-25T22:45:16.447Z,101446.75
2022-12-25T22:47:44.255Z,101444.22
2022-12-25T22:50:14.736Z,101455.03
2022-12-25T22:52:43.134Z,101451.91
2022-12-25T22:55:11.177Z,101457.47
2022-12-25T22:57:38.768Z,101451.84
2022-12-25T23:00:08.908Z,101458.66
2022-12-25T23:02:36.920Z,101459.03
2022-12-25T23:05:04.964Z,101462.22
2022-12-25T23:07:32.511Z,101465.62
2022-12-25T23:10:00.543Z,101460.66
2022-12-25T23:12:46.892Z,101458.41
2022-12-25T23:15:14.761Z,101455.25
2022-12-25T23:18:01.389Z,101454.47
2022-12-25T23:20:47.996Z,101449.50
2022-12-25T23:23:35.471Z,101450.69
2022-12-25T23:26:09.803Z,101457.78
2022-12-25T23:28:59.376Z,101450.25
2022-12-25T23:31:35.361Z,101432.00
2022-12-25T23:34:05.244Z,101445.78
2022-12-25T23:36:34.133Z,101451.31
2022-12-25T23:39:08.996Z,101444.66
2022-12-25T23:41:39.690Z,101433.56
2022-12-25T23:44:07.766Z,101431.56
2022-12-25T23:46:35.779Z,101428.81
2022-12-25T23:49:04.007Z,101426.22
2022-12-25T23:51:31.835Z,101431.16
2022-12-25T23:53:59.451Z,101430.75
2022-12-25T23:56:27.345Z,101435.12
2022-12-25T23:58:55.018Z,101433.53
